Canal Flats, Canada
Current Conditions -  °F | °C
As of 12:00 AM on Saturday 29 Nov 2014 (Local Time) from CYXC Reporting Station
Moderate Snow Moderate Snow  
Wind Chill:   Ceiling: 300
Heat Index: 21°   Visibility: 0.5mi
Dew Point: 18°   Wind: 12mph
Humidity: 86%   Direction: 10°N
Pressure: 29.22"   Gusts: NA
Location:  50.15°N, 115.83°W
Report Text: CYXC 290700Z 01010KT 1/2SM SN VV003 M06/M08 A2922 RMK SN8 PRESRR SLP918
Loading
Personal Weather Stations






























Interactive Weather Map New forecast layout! Learn more

10-Day Weather Forecast

Advertisements
Track Severe Weather on mobile